Time;durP1;ratioP1;P1;durP2;ratioP2;P2;SDS_P1;SDS_P2;PMS_P1;PMS_P2;Temp;Humidity;BMP_temperature;BMP_pressure;BME280_temperature;BME280_humidity;BME280_pressure;Samples;Min_cycle;Max_cycle;Signal;HPM_P1;HPM_P2
2021/11/02 00:05:09;;;;;;;34.47;17.77;;;;;;;7.61;97.30;99230.06;708734;1212;113883;-75
2021/11/02 00:20:13;;;;;;;30.70;17.80;;;;;;;7.53;96.91;99222.13;708811;1209;115401;-76
2021/11/02 00:35:16;;;;;;;36.57;17.47;;;;;;;7.33;96.84;99206.51;708879;1209;114499;-75
2021/11/02 00:50:18;;;;;;;31.05;17.70;;;;;;;7.22;97.75;99182.37;708830;1186;115350;-75
2021/11/02 01:05:21;;;;;;;35.83;17.47;;;;;;;7.16;97.88;99196.80;708856;1185;113858;-74
2021/11/02 01:20:24;;;;;;;36.93;17.75;;;;;;;7.07;98.73;99195.03;709037;1208;114013;-75
2021/11/02 01:35:27;;;;;;;32.57;16.67;;;;;;;7.03;99.25;99184.05;709024;1209;113994;-75
2021/11/02 01:50:29;;;;;;;28.45;15.70;;;;;;;6.83;99.71;99154.56;708595;1209;114380;-74
2021/11/02 02:05:51;;;;;;;30.90;16.30;;;;;;;6.76;100.00;99162.13;708718;1209;113715;-74
2021/11/02 02:21:02;;;;;;;32.80;16.73;;;;;;;6.58;100.00;99148.14;709076;1209;115804;-75
2021/11/02 02:36:05;;;;;;;34.85;18.00;;;;;;;6.41;100.00;99103.55;709079;1184;114837;-77
2021/11/02 02:51:10;;;;;;;34.80;18.30;;;;;;;6.22;100.00;99083.55;708634;1212;114886;-75
2021/11/02 03:06:16;;;;;;;32.40;17.60;;;;;;;6.02;100.00;99092.30;708852;1209;114130;-74
2021/11/02 09:00:00;;;;;;;97.50;45.00;;;;;;;7.27;100.00;99047.12;708787;1210;115527;-76
2021/11/02 09:15:05;;;;;;;105.17;47.60;;;;;;;7.44;100.00;99037.70;708720;1209;117231;-74
2021/11/02 09:30:11;;;;;;;97.60;40.33;;;;;;;7.67;100.00;99027.69;708798;1186;114121;-75
2021/11/02 09:45:39;;;;;;;72.40;35.30;;;;;;;7.78;100.00;99017.02;708810;1197;115528;-76
2021/11/02 10:01:05;;;;;;;74.25;37.60;;;;;;;7.73;100.00;99005.39;708741;1199;115633;-75
2021/11/02 10:16:38;;;;;;;57.60;29.50;;;;;;;7.80;100.00;98998.63;708886;1187;114765;-75
2021/11/02 10:32:03;;;;;;;73.00;33.70;;;;;;;7.92;100.00;98996.61;709091;1209;114672;-75
2021/11/02 10:47:21;;;;;;;86.90;37.20;;;;;;;7.94;100.00;98992.04;709055;1209;114145;-75
2021/11/02 11:02:29;;;;;;;63.80;31.55;;;;;;;7.78;100.00;98990.91;709029;1209;114716;-75
2021/11/02 11:17:34;;;;;;;53.10;24.80;;;;;;;7.66;100.00;98994.72;709024;1209;114584;-75
2021/11/02 11:32:39;;;;;;;51.70;29.75;;;;;;;7.64;100.00;98986.20;709471;1209;113898;-75
2021/11/02 11:47:41;;;;;;;111.70;51.40;;;;;;;7.63;100.00;98977.56;709394;1209;114139;-75
2021/11/02 12:03:23;;;;;;;84.40;39.40;;;;;;;7.71;100.00;98968.16;709528;1209;115612;-75
2021/11/02 12:18:28;;;;;;;63.60;32.60;;;;;;;7.71;100.00;98970.77;709228;1185;114501;-72
2021/11/02 12:33:32;;;;;;;69.37;35.47;;;;;;;7.64;100.00;98958.33;709044;1208;114046;-75
2021/11/02 12:48:37;;;;;;;92.35;40.95;;;;;;;7.62;100.00;98962.87;709342;1189;114087;-73
2021/11/02 13:03:54;;;;;;;79.60;35.60;;;;;;;7.60;100.00;98969.20;708934;1194;114040;-73
2021/11/02 13:18:57;;;;;;;76.75;39.90;;;;;;;7.69;100.00;98973.53;709293;1209;117709;-74
2021/11/02 13:34:01;;;;;;;112.43;54.00;;;;;;;7.78;100.00;98980.47;708949;1212;114287;-75
2021/11/02 13:49:05;;;;;;;170.50;88.80;;;;;;;7.89;100.00;98987.28;709198;1209;114386;-74
2021/11/02 14:04:25;;;;;;;86.80;48.20;;;;;;;7.99;100.00;98984.58;709334;1209;115130;-74
2021/11/02 14:19:33;;;;;;;121.50;62.00;;;;;;;8.03;100.00;99014.64;708970;1209;115503;-76
2021/11/02 14:34:38;;;;;;;97.60;52.20;;;;;;;8.06;100.00;98998.66;709103;1209;114316;-73
2021/11/02 14:49:41;;;;;;;87.40;39.85;;;;;;;8.13;100.00;98985.85;709170;1208;115573;-72
2021/11/02 15:04:45;;;;;;;78.40;40.50;;;;;;;8.14;100.00;98974.41;708894;1212;115655;-73
2021/11/02 15:19:48;;;;;;;73.20;37.13;;;;;;;8.19;100.00;98981.80;709524;1186;114293;-72
2021/11/02 15:34:59;;;;;;;84.15;40.05;;;;;;;8.21;100.00;98966.78;709840;1208;114440;-71
2021/11/02 15:50:06;;;;;;;188.90;85.25;;;;;;;8.24;100.00;98951.63;709844;1184;114062;-70
2021/11/02 16:05:11;;;;;;;89.40;44.60;;;;;;;8.26;100.00;98946.24;709315;1184;115785;-72
2021/11/02 16:20:27;;;;;;;87.87;44.20;;;;;;;8.33;100.00;98958.55;709041;1189;115400;-75
2021/11/02 16:35:53;;;;;;;87.65;40.85;;;;;;;8.35;100.00;98950.55;709139;1209;114268;-74
2021/11/02 16:50:56;;;;;;;81.40;38.40;;;;;;;8.30;100.00;98969.31;709076;1193;114131;-74
2021/11/02 17:06:09;;;;;;;75.17;39.37;;;;;;;8.33;100.00;98968.19;709055;1187;114249;-77
2021/11/02 17:21:16;;;;;;;139.05;64.95;;;;;;;8.31;100.00;98973.58;709135;1184;114151;-76
2021/11/02 17:36:21;;;;;;;105.70;51.40;;;;;;;8.39;100.00;98980.63;709533;1185;114645;-74
2021/11/02 17:51:25;;;;;;;81.40;39.50;;;;;;;8.38;100.00;98981.63;709013;1187;114296;-72
2021/11/02 18:06:29;;;;;;;74.90;36.00;;;;;;;8.45;100.00;98972.21;709085;1185;113977;-72
2021/11/02 18:21:33;;;;;;;61.00;31.60;;;;;;;8.47;100.00;98985.96;709372;1199;114503;-72
2021/11/02 18:36:37;;;;;;;65.45;32.00;;;;;;;8.49;100.00;98976.16;709213;1184;114022;-73
2021/11/02 18:51:41;;;;;;;61.60;29.10;;;;;;;8.49;100.00;98972.73;709218;1209;114595;-72
2021/11/02 19:06:45;;;;;;;64.50;30.07;;;;;;;8.54;100.00;98977.48;709438;1188;114530;-72
2021/11/02 19:21:48;;;;;;;50.90;26.70;;;;;;;8.55;100.00;98986.97;709485;1187;113873;-74
2021/11/02 19:36:56;;;;;;;60.25;28.65;;;;;;;8.55;100.00;98974.74;709352;1208;115388;-72
2021/11/02 19:51:59;;;;;;;55.80;28.38;;;;;;;8.58;100.00;98973.61;709330;1208;114669;-74
2021/11/02 20:07:11;;;;;;;54.53;26.87;;;;;;;8.58;100.00;98990.11;708969;1188;113942;-74
2021/11/02 20:22:16;;;;;;;49.80;26.83;;;;;;;8.70;100.00;98993.28;709132;1201;113997;-73
2021/11/02 20:37:24;;;;;;;45.70;23.50;;;;;;;8.72;100.00;98999.16;709388;1187;114763;-73
2021/11/02 20:52:29;;;;;;;48.10;22.50;;;;;;;8.78;100.00;98995.94;708746;1209;114023;-74
2021/11/02 21:07:39;;;;;;;41.87;20.80;;;;;;;8.81;100.00;98995.61;708931;1212;114681;-73
2021/11/02 21:22:46;;;;;;;42.05;22.70;;;;;;;8.85;100.00;99000.55;708734;1209;114432;-74
2021/11/02 21:37:50;;;;;;;45.07;24.87;;;;;;;8.80;100.00;98996.61;708808;1189;114583;-75
2021/11/02 21:53:03;;;;;;;34.80;19.90;;;;;;;8.66;100.00;98990.15;708515;1210;114385;-75
2021/11/02 22:08:05;;;;;;;36.85;19.95;;;;;;;8.62;100.00;98990.63;708719;1209;114139;-74
2021/11/02 22:23:08;;;;;;;37.00;20.00;;;;;;;8.51;100.00;98993.48;708481;1208;115054;-73
2021/11/02 22:38:12;;;;;;;35.80;18.90;;;;;;;8.53;100.00;98994.97;708849;1184;114179;-72
2021/11/02 22:53:15;;;;;;;34.80;18.70;;;;;;;8.53;100.00;98999.39;708894;1209;114607;-73
2021/11/02 23:08:20;;;;;;;37.65;19.55;;;;;;;8.55;100.00;98994.81;708875;1209;113936;-74
2021/11/02 23:23:51;;;;;;;32.10;17.55;;;;;;;8.60;100.00;98990.76;708774;1187;114022;-74
2021/11/02 23:38:54;;;;;;;27.10;15.35;;;;;;;8.68;100.00;98991.80;708180;1209;115450;-74
2021/11/02 23:53:57;;;;;;;25.20;14.30;;;;;;;8.79;100.00;98984.51;708869;1187;114177;-74
